Sturgeon Bay, WI (54235)

10:14 AM CDT on July 29, 2014 (GMT -0500)
Leif Everson Observatory (KWISTURG1) Elev 636 ft | 44.83 °N, 87.34 °W | Change Station

Current weather conditions updated 2 minutes ago

Clear
Clear
64.3 °F
Feels Like 64.3 °F
N
4.0
Wind Variable Wind from North
Gusts 4.0 mph

Today is forecast to be Warmer than yesterday. Scattered thunderstorms.

Today
High -- | Low -- °F
--% Chance of Precip.
Yesterday
High -- | Low -- °F
Precip. -- in
5:32 AM 8:19 PM
Waxing Crescent, 6% visible
Pressure 30.01 in
Visibility 10.0 miles
Clouds Clear
Dew Point 56 °F
Humidity 74%
Rainfall 0.00 in
Snow Depth Not available.
UV 1.7 out of 12
Pollen 7.00 out of 12
Air Quality Not available.
Flu Activity Not available.
METAR KSUE 291455Z AUTO 32005KT 10SM CLR 18/12 A3001 RMK AO1 52003

More Conditions Fewer Conditions

Pressure 30.01 in
Visibility 10.0 miles
Clouds Clear
Dew Point 56 °F
Humidity 74%
Rainfall 0.00 in
Snow Depth Not available.
UV 1.7 out of 12
Pollen 7.00 out of 12
Air Quality Not available.
Flu Activity Not available.
METAR KSUE 291455Z AUTO 32005KT 10SM CLR 18/12 A3001 RMK AO1 52003

More Conditions Fewer Conditions

10-Day Weather Forecast

Almanac

Astronomy

Jul. 29, 2014 Rise Set
Actual Time 5:32 AM CDT 8:19 PM CDT
Civil Twilight 4:58 AM CDT 8:53 PM CDT
Nautical Twilight 4:14 AM CDT 9:36 PM CDT
Astronomical Twilight 3:24 AM CDT 10:25 PM CDT
Moon 8:17 AM CDT 9:21 PM CDT
Length of Visible Light 15h 55m
Length of Day
14h 47m
Tomorrow will be 2m 18s shorter.
Waxing Crescent, 6% of the Moon is Illuminated
Today
Waxing Crescent
Aug 3
First Quarter
Aug 10
Full
Aug 17
Last Quarter
Aug 25
New

Today's Extremes

State Highs State Lows

Community

WunderPhotos

Upload Photos

1,738,765 photos uploaded!

WunderBlogs® & News

Nearby

Snow Depth

Station Depth Elevation
No new snow has been reported.

Earthquake Activity

City Distance Mag. Time & Date
No recent earthquake activity has been reported nearby.
Minimum magnitude displayed is 2.5.

Coastal Water Temperatures

Place Temperature
No Stations Reporting

Nearby Weather Stations

Station Location Temp. Dew Point Humidity Wind Precip. Elev Updated Type
Leif Everson Observatory, Sturgeon Bay, WI 64.3 °F 56 °F 74% North  at  4.0 mph 0.00 in / hr 636 ft 10:12 AM CDT Normal
Egg Harbor WI, Egg Harbor, WI 63.9 °F 60 °F 87% SSE  at  0.0 mph 0.00 in / hr 650 ft 10:13 AM CDT Normal
MARITIME , Algoma, WI - - - NNW  at  6 mph 0.00 in / hr 587 ft 6:51 AM CDT MADIS
MARITIME , Oconto, WI 63 °F - - NNW  at  4 mph 0.00 in / hr 582 ft 9:30 AM CDT MADIS
Tyco Fire Protection, Marinette, WI 65.3 °F 57 °F 74% NNW  at  4.0 mph 0.00 in / hr 617 ft 10:14 AM CDT Normal

Show More Stations Show Fewer Stations